• °C
  • Pobieranie danych...
wx


SEKCJA WYDRUKÓW, pokaż »

TAF EPLB 261730Z 2618/2703 27014KT 9999 SCT020 BKN040
TEMPO 2618/2621 29015G25KT DRSN BKN012
PROB40 TEMPO 2621/2703 -SN BKN007 BKN012=

TAF EPRA 260200Z NIL=

TAF EPSY 261730Z 2618/2703 30010KT 9999 BKN030
PROB40 TEMPO 2618/2701 4000 -SN BR BKN010 OVC015=

TAF EPZG 261730Z 2618/2703 26010KT 6000 -SN BKN015
TEMPO 2618/2703 2500 SN BR BKN007 BKN012
PROB30 TEMPO 2618/2624 1400 SHSN BKN004 BKN009CB=



Serwisy IMGW-PIB